sensor_id;sensor_type;location;lat;lon;timestamp;P1;durP1;ratioP1;P2;durP2;ratioP2
65581;SDS011;52231;40.090;18.348;2023-02-15T00:00:17;44.58;;;22.05;;
65581;SDS011;52231;40.090;18.348;2023-02-15T00:02:46;44.10;;;22.08;;
65581;SDS011;52231;40.090;18.348;2023-02-15T00:05:14;42.55;;;22.75;;
65581;SDS011;52231;40.090;18.348;2023-02-15T00:07:43;46.40;;;23.27;;
65581;SDS011;52231;40.090;18.348;2023-02-15T00:10:11;42.63;;;21.60;;
65581;SDS011;52231;40.090;18.348;2023-02-15T00:12:39;46.97;;;21.50;;
65581;SDS011;52231;40.090;18.348;2023-02-15T00:15:08;45.25;;;21.95;;
65581;SDS011;52231;40.090;18.348;2023-02-15T00:17:36;44.25;;;21.83;;
65581;SDS011;52231;40.090;18.348;2023-02-15T00:20:04;45.65;;;21.27;;
65581;SDS011;52231;40.090;18.348;2023-02-15T00:22:33;46.92;;;22.27;;
65581;SDS011;52231;40.090;18.348;2023-02-15T00:25:01;48.40;;;22.92;;
65581;SDS011;52231;40.090;18.348;2023-02-15T00:27:29;50.92;;;23.13;;
65581;SDS011;52231;40.090;18.348;2023-02-15T00:29:57;51.10;;;22.27;;
65581;SDS011;52231;40.090;18.348;2023-02-15T00:32:25;53.35;;;23.23;;
65581;SDS011;52231;40.090;18.348;2023-02-15T00:34:54;48.53;;;22.38;;
65581;SDS011;52231;40.090;18.348;2023-02-15T00:37:23;46.88;;;23.63;;
65581;SDS011;52231;40.090;18.348;2023-02-15T00:39:52;57.15;;;23.63;;
65581;SDS011;52231;40.090;18.348;2023-02-15T00:42:20;53.75;;;24.08;;
65581;SDS011;52231;40.090;18.348;2023-02-15T00:44:48;57.72;;;24.65;;
65581;SDS011;52231;40.090;18.348;2023-02-15T00:47:16;58.28;;;24.02;;
65581;SDS011;52231;40.090;18.348;2023-02-15T00:49:44;53.15;;;24.13;;
65581;SDS011;52231;40.090;18.348;2023-02-15T00:52:14;52.97;;;24.95;;
65581;SDS011;52231;40.090;18.348;2023-02-15T00:54:42;52.47;;;24.70;;
65581;SDS011;52231;40.090;18.348;2023-02-15T00:57:11;58.53;;;24.50;;
65581;SDS011;52231;40.090;18.348;2023-02-15T00:59:39;57.97;;;25.98;;
65581;SDS011;52231;40.090;18.348;2023-02-15T01:02:07;63.22;;;26.63;;
65581;SDS011;52231;40.090;18.348;2023-02-15T01:04:35;57.28;;;25.67;;
65581;SDS011;52231;40.090;18.348;2023-02-15T01:07:03;55.05;;;24.90;;
65581;SDS011;52231;40.090;18.348;2023-02-15T01:09:33;57.75;;;26.92;;
65581;SDS011;52231;40.090;18.348;2023-02-15T01:12:02;65.95;;;27.33;;
65581;SDS011;52231;40.090;18.348;2023-02-15T01:14:31;64.60;;;27.77;;
65581;SDS011;52231;40.090;18.348;2023-02-15T01:16:59;61.55;;;27.17;;
65581;SDS011;52231;40.090;18.348;2023-02-15T01:19:27;64.57;;;27.67;;
65581;SDS011;52231;40.090;18.348;2023-02-15T01:21:55;66.78;;;29.80;;
65581;SDS011;52231;40.090;18.348;2023-02-15T01:24:24;66.30;;;30.15;;
65581;SDS011;52231;40.090;18.348;2023-02-15T01:26:52;67.05;;;30.42;;
65581;SDS011;52231;40.090;18.348;2023-02-15T01:29:20;63.95;;;29.70;;
65581;SDS011;52231;40.090;18.348;2023-02-15T01:31:48;71.43;;;30.75;;
65581;SDS011;52231;40.090;18.348;2023-02-15T01:34:17;69.05;;;30.55;;
65581;SDS011;52231;40.090;18.348;2023-02-15T01:36:45;65.88;;;30.83;;
65581;SDS011;52231;40.090;18.348;2023-02-15T01:39:14;63.67;;;28.65;;
65581;SDS011;52231;40.090;18.348;2023-02-15T01:41:42;66.82;;;30.10;;
65581;SDS011;52231;40.090;18.348;2023-02-15T01:47:16;62.72;;;29.45;;
65581;SDS011;52231;40.090;18.348;2023-02-15T01:50:17;66.70;;;29.13;;
65581;SDS011;52231;40.090;18.348;2023-02-15T01:56:02;73.55;;;30.58;;
65581;SDS011;52231;40.090;18.348;2023-02-15T01:58:37;64.38;;;29.98;;
65581;SDS011;52231;40.090;18.348;2023-02-15T02:01:07;72.47;;;30.60;;
65581;SDS011;52231;40.090;18.348;2023-02-15T02:03:38;73.30;;;31.52;;
65581;SDS011;52231;40.090;18.348;2023-02-15T02:06:32;73.70;;;30.80;;
65581;SDS011;52231;40.090;18.348;2023-02-15T02:09:03;73.15;;;30.42;;
65581;SDS011;52231;40.090;18.348;2023-02-15T02:11:31;77.18;;;30.33;;
65581;SDS011;52231;40.090;18.348;2023-02-15T02:14:00;66.68;;;29.40;;
65581;SDS011;52231;40.090;18.348;2023-02-15T02:27:29;71.47;;;30.38;;
65581;SDS011;52231;40.090;18.348;2023-02-15T02:44:25;68.90;;;29.35;;
65581;SDS011;52231;40.090;18.348;2023-02-15T02:47:06;66.00;;;29.05;;
65581;SDS011;52231;40.090;18.348;2023-02-15T02:49:40;65.95;;;29.60;;
65581;SDS011;52231;40.090;18.348;2023-02-15T02:57:57;72.55;;;30.33;;
65581;SDS011;52231;40.090;18.348;2023-02-15T03:00:40;60.95;;;29.58;;
65581;SDS011;52231;40.090;18.348;2023-02-15T03:03:22;73.95;;;29.95;;
65581;SDS011;52231;40.090;18.348;2023-02-15T03:08:29;59.08;;;27.23;;
65581;SDS011;52231;40.090;18.348;2023-02-15T03:11:04;70.78;;;28.85;;
65581;SDS011;52231;40.090;18.348;2023-02-15T03:13:32;66.13;;;28.10;;
65581;SDS011;52231;40.090;18.348;2023-02-15T03:16:04;67.63;;;27.92;;
65581;SDS011;52231;40.090;18.348;2023-02-15T03:18:58;65.90;;;30.13;;
65581;SDS011;52231;40.090;18.348;2023-02-15T03:21:51;63.90;;;28.55;;
65581;SDS011;52231;40.090;18.348;2023-02-15T03:24:26;67.75;;;28.15;;
65581;SDS011;52231;40.090;18.348;2023-02-15T03:27:06;68.13;;;28.35;;
65581;SDS011;52231;40.090;18.348;2023-02-15T03:29:39;60.00;;;26.77;;
65581;SDS011;52231;40.090;18.348;2023-02-15T03:32:08;60.13;;;26.02;;
65581;SDS011;52231;40.090;18.348;2023-02-15T03:34:38;58.85;;;27.45;;
65581;SDS011;52231;40.090;18.348;2023-02-15T03:39:59;65.13;;;28.45;;
65581;SDS011;52231;40.090;18.348;2023-02-15T03:42:51;61.38;;;26.63;;
65581;SDS011;52231;40.090;18.348;2023-02-15T03:45:38;64.40;;;28.27;;
65581;SDS011;52231;40.090;18.348;2023-02-15T03:48:22;61.28;;;27.38;;
65581;SDS011;52231;40.090;18.348;2023-02-15T03:50:58;55.65;;;26.67;;
65581;SDS011;52231;40.090;18.348;2023-02-15T03:53:49;54.83;;;26.17;;
65581;SDS011;52231;40.090;18.348;2023-02-15T03:56:22;57.58;;;27.10;;
65581;SDS011;52231;40.090;18.348;2023-02-15T04:01:41;56.42;;;25.23;;
65581;SDS011;52231;40.090;18.348;2023-02-15T04:04:39;59.17;;;25.45;;
65581;SDS011;52231;40.090;18.348;2023-02-15T04:07:12;62.42;;;26.20;;
65581;SDS011;52231;40.090;18.348;2023-02-15T04:09:40;60.58;;;27.95;;
65581;SDS011;52231;40.090;18.348;2023-02-15T04:12:27;61.10;;;26.23;;
65581;SDS011;52231;40.090;18.348;2023-02-15T04:14:55;64.68;;;26.02;;
65581;SDS011;52231;40.090;18.348;2023-02-15T04:17:42;59.83;;;27.05;;
65581;SDS011;52231;40.090;18.348;2023-02-15T04:20:10;64.60;;;26.27;;
65581;SDS011;52231;40.090;18.348;2023-02-15T04:23:00;58.85;;;25.55;;
65581;SDS011;52231;40.090;18.348;2023-02-15T04:25:51;56.50;;;24.75;;
65581;SDS011;52231;40.090;18.348;2023-02-15T04:28:19;59.35;;;26.17;;
65581;SDS011;52231;40.090;18.348;2023-02-15T04:30:49;62.60;;;27.50;;
65581;SDS011;52231;40.090;18.348;2023-02-15T04:36:11;62.53;;;27.38;;
65581;SDS011;52231;40.090;18.348;2023-02-15T04:38:39;60.70;;;26.52;;
65581;SDS011;52231;40.090;18.348;2023-02-15T04:41:07;65.05;;;25.23;;
65581;SDS011;52231;40.090;18.348;2023-02-15T04:43:39;62.08;;;26.98;;
65581;SDS011;52231;40.090;18.348;2023-02-15T04:46:07;64.85;;;26.00;;
65581;SDS011;52231;40.090;18.348;2023-02-15T04:48:35;62.47;;;27.15;;
65581;SDS011;52231;40.090;18.348;2023-02-15T04:51:07;61.97;;;28.02;;
65581;SDS011;52231;40.090;18.348;2023-02-15T04:53:39;63.03;;;26.88;;
65581;SDS011;52231;40.090;18.348;2023-02-15T04:56:07;63.85;;;28.38;;
65581;SDS011;52231;40.090;18.348;2023-02-15T04:58:36;66.68;;;27.48;;
65581;SDS011;52231;40.090;18.348;2023-02-15T05:01:11;66.97;;;27.05;;
65581;SDS011;52231;40.090;18.348;2023-02-15T05:03:40;62.67;;;27.92;;
65581;SDS011;52231;40.090;18.348;2023-02-15T05:06:08;65.47;;;26.63;;
65581;SDS011;52231;40.090;18.348;2023-02-15T05:08:36;59.70;;;25.88;;
65581;SDS011;52231;40.090;18.348;2023-02-15T05:11:05;63.28;;;27.23;;
65581;SDS011;52231;40.090;18.348;2023-02-15T05:13:33;62.72;;;25.38;;
65581;SDS011;52231;40.090;18.348;2023-02-15T05:16:01;54.92;;;26.13;;
65581;SDS011;52231;40.090;18.348;2023-02-15T05:18:30;62.67;;;26.00;;
65581;SDS011;52231;40.090;18.348;2023-02-15T05:20:58;61.20;;;25.88;;
65581;SDS011;52231;40.090;18.348;2023-02-15T05:23:26;63.03;;;25.55;;
65581;SDS011;52231;40.090;18.348;2023-02-15T05:25:54;60.42;;;27.38;;
65581;SDS011;52231;40.090;18.348;2023-02-15T05:28:57;66.10;;;25.63;;
65581;SDS011;52231;40.090;18.348;2023-02-15T05:31:27;56.28;;;25.95;;
65581;SDS011;52231;40.090;18.348;2023-02-15T05:33:55;57.08;;;26.15;;
65581;SDS011;52231;40.090;18.348;2023-02-15T05:36:24;59.47;;;25.63;;
65581;SDS011;52231;40.090;18.348;2023-02-15T05:38:52;51.70;;;23.40;;
65581;SDS011;52231;40.090;18.348;2023-02-15T05:41:21;59.40;;;26.60;;
65581;SDS011;52231;40.090;18.348;2023-02-15T05:43:49;52.63;;;25.13;;
65581;SDS011;52231;40.090;18.348;2023-02-15T05:46:19;52.53;;;24.60;;
65581;SDS011;52231;40.090;18.348;2023-02-15T05:48:47;56.72;;;26.25;;
65581;SDS011;52231;40.090;18.348;2023-02-15T05:51:15;57.30;;;25.10;;
65581;SDS011;52231;40.090;18.348;2023-02-15T05:53:44;63.08;;;25.88;;
65581;SDS011;52231;40.090;18.348;2023-02-15T05:56:15;60.25;;;24.38;;
65581;SDS011;52231;40.090;18.348;2023-02-15T05:58:43;62.13;;;27.60;;
65581;SDS011;52231;40.090;18.348;2023-02-15T06:01:12;61.97;;;27.60;;
65581;SDS011;52231;40.090;18.348;2023-02-15T06:03:45;60.05;;;27.75;;
65581;SDS011;52231;40.090;18.348;2023-02-15T06:06:14;58.47;;;28.08;;
65581;SDS011;52231;40.090;18.348;2023-02-15T06:08:42;67.15;;;30.13;;
65581;SDS011;52231;40.090;18.348;2023-02-15T06:11:11;63.30;;;31.63;;
65581;SDS011;52231;40.090;18.348;2023-02-15T06:13:39;62.28;;;30.77;;
65581;SDS011;52231;40.090;18.348;2023-02-15T06:16:07;67.00;;;30.60;;
65581;SDS011;52231;40.090;18.348;2023-02-15T06:18:35;60.58;;;28.70;;
65581;SDS011;52231;40.090;18.348;2023-02-15T06:21:04;61.80;;;26.73;;
65581;SDS011;52231;40.090;18.348;2023-02-15T06:23:32;60.22;;;27.48;;
65581;SDS011;52231;40.090;18.348;2023-02-15T06:26:00;69.28;;;33.60;;
65581;SDS011;52231;40.090;18.348;2023-02-15T06:28:29;69.30;;;31.25;;
65581;SDS011;52231;40.090;18.348;2023-02-15T06:30:57;58.22;;;28.27;;
65581;SDS011;52231;40.090;18.348;2023-02-15T06:33:25;58.88;;;29.58;;
65581;SDS011;52231;40.090;18.348;2023-02-15T06:35:53;60.45;;;29.52;;
65581;SDS011;52231;40.090;18.348;2023-02-15T06:38:22;59.13;;;30.05;;
65581;SDS011;52231;40.090;18.348;2023-02-15T06:40:51;52.33;;;26.80;;
65581;SDS011;52231;40.090;18.348;2023-02-15T06:43:19;51.47;;;28.30;;
65581;SDS011;52231;40.090;18.348;2023-02-15T06:45:47;54.17;;;26.08;;
65581;SDS011;52231;40.090;18.348;2023-02-15T06:48:17;51.67;;;25.38;;
65581;SDS011;52231;40.090;18.348;2023-02-15T06:50:45;46.15;;;22.75;;
65581;SDS011;52231;40.090;18.348;2023-02-15T06:53:13;53.67;;;24.55;;
65581;SDS011;52231;40.090;18.348;2023-02-15T06:55:42;51.47;;;24.05;;
65581;SDS011;52231;40.090;18.348;2023-02-15T06:58:10;52.83;;;24.65;;
65581;SDS011;52231;40.090;18.348;2023-02-15T07:00:41;46.42;;;24.42;;
65581;SDS011;52231;40.090;18.348;2023-02-15T07:03:09;49.50;;;22.17;;
65581;SDS011;52231;40.090;18.348;2023-02-15T07:05:43;46.08;;;23.85;;
65581;SDS011;52231;40.090;18.348;2023-02-15T07:08:12;46.53;;;21.67;;
65581;SDS011;52231;40.090;18.348;2023-02-15T07:10:43;44.97;;;22.05;;
65581;SDS011;52231;40.090;18.348;2023-02-15T07:13:11;42.78;;;22.75;;
65581;SDS011;52231;40.090;18.348;2023-02-15T07:15:40;45.78;;;21.70;;
65581;SDS011;52231;40.090;18.348;2023-02-15T07:18:08;47.90;;;23.23;;
65581;SDS011;52231;40.090;18.348;2023-02-15T07:20:39;48.53;;;23.15;;
65581;SDS011;52231;40.090;18.348;2023-02-15T07:23:09;41.83;;;20.33;;
65581;SDS011;52231;40.090;18.348;2023-02-15T07:25:37;40.78;;;20.70;;
65581;SDS011;52231;40.090;18.348;2023-02-15T07:28:05;40.65;;;18.30;;
65581;SDS011;52231;40.090;18.348;2023-02-15T07:30:33;43.15;;;21.35;;
65581;SDS011;52231;40.090;18.348;2023-02-15T07:33:03;48.45;;;21.08;;
65581;SDS011;52231;40.090;18.348;2023-02-15T07:35:51;40.33;;;19.23;;
65581;SDS011;52231;40.090;18.348;2023-02-15T07:38:21;46.25;;;20.77;;
65581;SDS011;52231;40.090;18.348;2023-02-15T07:40:49;37.45;;;17.27;;
65581;SDS011;52231;40.090;18.348;2023-02-15T07:43:18;38.80;;;18.00;;
65581;SDS011;52231;40.090;18.348;2023-02-15T07:45:46;34.90;;;17.00;;
65581;SDS011;52231;40.090;18.348;2023-02-15T07:48:14;31.60;;;16.85;;
65581;SDS011;52231;40.090;18.348;2023-02-15T07:50:42;30.92;;;14.93;;
65581;SDS011;52231;40.090;18.348;2023-02-15T07:53:12;33.88;;;16.33;;
65581;SDS011;52231;40.090;18.348;2023-02-15T07:55:40;35.30;;;16.00;;
65581;SDS011;52231;40.090;18.348;2023-02-15T07:58:08;33.72;;;16.20;;
65581;SDS011;52231;40.090;18.348;2023-02-15T08:00:37;35.28;;;16.98;;
65581;SDS011;52231;40.090;18.348;2023-02-15T08:03:24;34.90;;;16.33;;
65581;SDS011;52231;40.090;18.348;2023-02-15T08:05:57;34.55;;;15.48;;
65581;SDS011;52231;40.090;18.348;2023-02-15T08:08:27;29.77;;;14.75;;
65581;SDS011;52231;40.090;18.348;2023-02-15T08:11:00;27.67;;;14.65;;
65581;SDS011;52231;40.090;18.348;2023-02-15T08:13:51;33.13;;;15.63;;
65581;SDS011;52231;40.090;18.348;2023-02-15T08:16:30;31.23;;;14.93;;
65581;SDS011;52231;40.090;18.348;2023-02-15T08:19:09;33.88;;;15.65;;
65581;SDS011;52231;40.090;18.348;2023-02-15T08:21:42;34.92;;;16.10;;
65581;SDS011;52231;40.090;18.348;2023-02-15T08:24:13;28.15;;;15.48;;
65581;SDS011;52231;40.090;18.348;2023-02-15T08:26:42;30.08;;;15.45;;
65581;SDS011;52231;40.090;18.348;2023-02-15T08:29:13;28.63;;;14.65;;
65581;SDS011;52231;40.090;18.348;2023-02-15T08:31:42;32.17;;;16.00;;
65581;SDS011;52231;40.090;18.348;2023-02-15T08:34:13;35.75;;;15.35;;
65581;SDS011;52231;40.090;18.348;2023-02-15T08:36:43;37.42;;;17.02;;
65581;SDS011;52231;40.090;18.348;2023-02-15T08:39:13;36.92;;;18.40;;
65581;SDS011;52231;40.090;18.348;2023-02-15T08:41:43;34.30;;;16.30;;
65581;SDS011;52231;40.090;18.348;2023-02-15T08:44:17;29.48;;;13.85;;
65581;SDS011;52231;40.090;18.348;2023-02-15T08:46:47;27.52;;;12.88;;
65581;SDS011;52231;40.090;18.348;2023-02-15T08:49:17;27.50;;;13.75;;
65581;SDS011;52231;40.090;18.348;2023-02-15T08:51:47;29.52;;;13.75;;
65581;SDS011;52231;40.090;18.348;2023-02-15T08:54:17;24.73;;;13.10;;
65581;SDS011;52231;40.090;18.348;2023-02-15T08:56:47;24.45;;;11.85;;
65581;SDS011;52231;40.090;18.348;2023-02-15T08:59:17;23.27;;;11.88;;
65581;SDS011;52231;40.090;18.348;2023-02-15T09:01:47;24.23;;;11.63;;
65581;SDS011;52231;40.090;18.348;2023-02-15T09:04:17;23.05;;;12.60;;
65581;SDS011;52231;40.090;18.348;2023-02-15T09:06:47;22.48;;;10.35;;
65581;SDS011;52231;40.090;18.348;2023-02-15T09:09:17;22.25;;;11.70;;
65581;SDS011;52231;40.090;18.348;2023-02-15T09:11:47;22.70;;;11.50;;
65581;SDS011;52231;40.090;18.348;2023-02-15T09:14:21;21.38;;;11.98;;
65581;SDS011;52231;40.090;18.348;2023-02-15T09:16:51;22.77;;;10.80;;
65581;SDS011;52231;40.090;18.348;2023-02-15T09:19:21;21.73;;;11.88;;
65581;SDS011;52231;40.090;18.348;2023-02-15T09:21:50;23.10;;;11.57;;
65581;SDS011;52231;40.090;18.348;2023-02-15T09:24:19;22.70;;;12.10;;
65581;SDS011;52231;40.090;18.348;2023-02-15T09:26:47;26.20;;;10.75;;
65581;SDS011;52231;40.090;18.348;2023-02-15T09:29:17;20.92;;;10.00;;
65581;SDS011;52231;40.090;18.348;2023-02-15T09:31:47;20.88;;;10.35;;
65581;SDS011;52231;40.090;18.348;2023-02-15T09:34:18;20.98;;;9.98;;
65581;SDS011;52231;40.090;18.348;2023-02-15T09:36:48;18.67;;;10.18;;
65581;SDS011;52231;40.090;18.348;2023-02-15T09:39:19;19.55;;;9.57;;
65581;SDS011;52231;40.090;18.348;2023-02-15T09:47:54;18.20;;;9.35;;
65581;SDS011;52231;40.090;18.348;2023-02-15T09:50:45;16.42;;;8.70;;
65581;SDS011;52231;40.090;18.348;2023-02-15T09:59:15;22.45;;;11.45;;
65581;SDS011;52231;40.090;18.348;2023-02-15T10:01:56;20.88;;;9.13;;
65581;SDS011;52231;40.090;18.348;2023-02-15T10:10:24;17.10;;;9.27;;
65581;SDS011;52231;40.090;18.348;2023-02-15T10:13:06;19.40;;;9.27;;
65581;SDS011;52231;40.090;18.348;2023-02-15T10:16:01;17.00;;;8.63;;
65581;SDS011;52231;40.090;18.348;2023-02-15T10:27:13;19.13;;;9.25;;
65581;SDS011;52231;40.090;18.348;2023-02-15T10:30:06;18.98;;;9.15;;
65581;SDS011;52231;40.090;18.348;2023-02-15T10:32:50;19.58;;;8.98;;
65581;SDS011;52231;40.090;18.348;2023-02-15T10:35:32;19.60;;;10.40;;
65581;SDS011;52231;40.090;18.348;2023-02-15T10:38:42;18.42;;;8.35;;
65581;SDS011;52231;40.090;18.348;2023-02-15T10:41:36;17.05;;;9.40;;
65581;SDS011;52231;40.090;18.348;2023-02-15T10:47:29;21.42;;;9.15;;
65581;SDS011;52231;40.090;18.348;2023-02-15T10:50:33;17.08;;;8.38;;
65581;SDS011;52231;40.090;18.348;2023-02-15T10:53:38;18.20;;;9.50;;
65581;SDS011;52231;40.090;18.348;2023-02-15T10:59:45;20.27;;;9.82;;
65581;SDS011;52231;40.090;18.348;2023-02-15T11:02:25;16.27;;;8.32;;
65581;SDS011;52231;40.090;18.348;2023-02-15T11:08:34;13.95;;;7.78;;
65581;SDS011;52231;40.090;18.348;2023-02-15T11:11:21;19.75;;;8.55;;
65581;SDS011;52231;40.090;18.348;2023-02-15T11:16:53;17.13;;;8.48;;
65581;SDS011;52231;40.090;18.348;2023-02-15T11:19:38;14.25;;;7.78;;
65581;SDS011;52231;40.090;18.348;2023-02-15T11:22:20;14.88;;;7.60;;
65581;SDS011;52231;40.090;18.348;2023-02-15T11:24:49;17.60;;;7.78;;
65581;SDS011;52231;40.090;18.348;2023-02-15T11:27:32;14.27;;;7.50;;
65581;SDS011;52231;40.090;18.348;2023-02-15T11:30:10;16.42;;;8.60;;
65581;SDS011;52231;40.090;18.348;2023-02-15T11:32:55;19.88;;;9.93;;
65581;SDS011;52231;40.090;18.348;2023-02-15T11:40:48;15.82;;;7.65;;
65581;SDS011;52231;40.090;18.348;2023-02-15T11:43:26;16.27;;;7.95;;
65581;SDS011;52231;40.090;18.348;2023-02-15T11:46:03;17.48;;;8.07;;
65581;SDS011;52231;40.090;18.348;2023-02-15T11:48:38;19.27;;;8.20;;
65581;SDS011;52231;40.090;18.348;2023-02-15T11:51:14;15.80;;;8.27;;
65581;SDS011;52231;40.090;18.348;2023-02-15T11:53:47;15.90;;;7.90;;
65581;SDS011;52231;40.090;18.348;2023-02-15T11:56:26;16.13;;;8.10;;
65581;SDS011;52231;40.090;18.348;2023-02-15T11:59:14;15.23;;;8.15;;
65581;SDS011;52231;40.090;18.348;2023-02-15T12:01:49;15.55;;;7.65;;
65581;SDS011;52231;40.090;18.348;2023-02-15T12:04:38;15.85;;;7.30;;
65581;SDS011;52231;40.090;18.348;2023-02-15T12:10:16;14.95;;;7.25;;
65581;SDS011;52231;40.090;18.348;2023-02-15T12:12:49;15.10;;;7.70;;
65581;SDS011;52231;40.090;18.348;2023-02-15T12:15:35;15.18;;;7.45;;
65581;SDS011;52231;40.090;18.348;2023-02-15T12:18:05;14.90;;;7.65;;
65581;SDS011;52231;40.090;18.348;2023-02-15T12:21:06;14.80;;;7.18;;
65581;SDS011;52231;40.090;18.348;2023-02-15T12:23:55;19.67;;;9.63;;
65581;SDS011;52231;40.090;18.348;2023-02-15T12:26:42;19.45;;;10.25;;
65581;SDS011;52231;40.090;18.348;2023-02-15T12:29:17;16.10;;;9.48;;
65581;SDS011;52231;40.090;18.348;2023-02-15T12:31:51;16.35;;;9.30;;
65581;SDS011;52231;40.090;18.348;2023-02-15T12:36:59;16.75;;;8.73;;
65581;SDS011;52231;40.090;18.348;2023-02-15T12:39:30;16.92;;;8.85;;
65581;SDS011;52231;40.090;18.348;2023-02-15T12:44:32;17.17;;;8.77;;
65581;SDS011;52231;40.090;18.348;2023-02-15T12:47:03;16.48;;;9.05;;
65581;SDS011;52231;40.090;18.348;2023-02-15T12:49:43;17.85;;;8.77;;
65581;SDS011;52231;40.090;18.348;2023-02-15T12:52:39;17.35;;;9.10;;
65581;SDS011;52231;40.090;18.348;2023-02-15T12:55:21;16.42;;;9.63;;
65581;SDS011;52231;40.090;18.348;2023-02-15T12:58:07;18.27;;;9.80;;
65581;SDS011;52231;40.090;18.348;2023-02-15T13:00:42;20.95;;;9.23;;
65581;SDS011;52231;40.090;18.348;2023-02-15T13:03:16;18.10;;;9.35;;
65581;SDS011;52231;40.090;18.348;2023-02-15T13:05:48;16.45;;;9.57;;
65581;SDS011;52231;40.090;18.348;2023-02-15T13:08:35;17.67;;;9.43;;
65581;SDS011;52231;40.090;18.348;2023-02-15T13:11:21;15.02;;;8.55;;
65581;SDS011;52231;40.090;18.348;2023-02-15T13:13:58;17.30;;;8.80;;
65581;SDS011;52231;40.090;18.348;2023-02-15T13:16:37;17.05;;;8.48;;
65581;SDS011;52231;40.090;18.348;2023-02-15T13:19:10;15.73;;;8.55;;
65581;SDS011;52231;40.090;18.348;2023-02-15T13:21:51;19.05;;;9.52;;
65581;SDS011;52231;40.090;18.348;2023-02-15T13:24:24;14.88;;;8.60;;
65581;SDS011;52231;40.090;18.348;2023-02-15T13:27:38;22.50;;;10.70;;
65581;SDS011;52231;40.090;18.348;2023-02-15T13:30:13;18.98;;;10.40;;
65581;SDS011;52231;40.090;18.348;2023-02-15T13:32:46;19.80;;;10.30;;
65581;SDS011;52231;40.090;18.348;2023-02-15T13:35:21;16.35;;;8.25;;
65581;SDS011;52231;40.090;18.348;2023-02-15T13:43:39;16.95;;;8.95;;
65581;SDS011;52231;40.090;18.348;2023-02-15T14:14:14;17.02;;;8.73;;
65581;SDS011;52231;40.090;18.348;2023-02-15T14:17:01;14.80;;;9.07;;
65581;SDS011;52231;40.090;18.348;2023-02-15T14:19:45;17.58;;;9.73;;
65581;SDS011;52231;40.090;18.348;2023-02-15T14:25:24;16.55;;;8.07;;
65581;SDS011;52231;40.090;18.348;2023-02-15T14:28:13;17.10;;;8.70;;
65581;SDS011;52231;40.090;18.348;2023-02-15T14:30:50;16.10;;;8.50;;
65581;SDS011;52231;40.090;18.348;2023-02-15T14:33:39;15.82;;;8.20;;
65581;SDS011;52231;40.090;18.348;2023-02-15T14:36:11;17.30;;;8.02;;
65581;SDS011;52231;40.090;18.348;2023-02-15T14:41:43;14.80;;;7.40;;
65581;SDS011;52231;40.090;18.348;2023-02-15T14:44:33;15.18;;;7.63;;
65581;SDS011;52231;40.090;18.348;2023-02-15T14:47:08;16.27;;;7.90;;
65581;SDS011;52231;40.090;18.348;2023-02-15T14:49:37;15.52;;;7.53;;
65581;SDS011;52231;40.090;18.348;2023-02-15T14:52:08;16.17;;;8.35;;
65581;SDS011;52231;40.090;18.348;2023-02-15T15:02:13;18.45;;;8.90;;
65581;SDS011;52231;40.090;18.348;2023-02-15T15:05:00;15.65;;;7.68;;
65581;SDS011;52231;40.090;18.348;2023-02-15T15:07:45;15.77;;;7.80;;
65581;SDS011;52231;40.090;18.348;2023-02-15T15:12:49;16.75;;;7.45;;
65581;SDS011;52231;40.090;18.348;2023-02-15T15:20:48;18.02;;;8.55;;
65581;SDS011;52231;40.090;18.348;2023-02-15T15:40:29;16.02;;;8.00;;
65581;SDS011;52231;40.090;18.348;2023-02-15T15:48:43;15.60;;;8.50;;
65581;SDS011;52231;40.090;18.348;2023-02-15T15:51:20;17.10;;;9.10;;
65581;SDS011;52231;40.090;18.348;2023-02-15T15:54:02;18.67;;;9.75;;
65581;SDS011;52231;40.090;18.348;2023-02-15T15:56:37;24.60;;;10.43;;
65581;SDS011;52231;40.090;18.348;2023-02-15T15:59:17;19.75;;;9.30;;
65581;SDS011;52231;40.090;18.348;2023-02-15T16:02:12;20.02;;;9.60;;
65581;SDS011;52231;40.090;18.348;2023-02-15T16:05:08;20.50;;;10.18;;
65581;SDS011;52231;40.090;18.348;2023-02-15T16:07:49;22.13;;;9.50;;
65581;SDS011;52231;40.090;18.348;2023-02-15T16:10:26;19.20;;;8.70;;
65581;SDS011;52231;40.090;18.348;2023-02-15T16:13:12;19.45;;;9.20;;
65581;SDS011;52231;40.090;18.348;2023-02-15T16:16:59;17.17;;;8.32;;
65581;SDS011;52231;40.090;18.348;2023-02-15T16:19:42;20.33;;;8.38;;
65581;SDS011;52231;40.090;18.348;2023-02-15T16:22:21;17.48;;;8.30;;
65581;SDS011;52231;40.090;18.348;2023-02-15T16:28:12;21.83;;;10.73;;
65581;SDS011;52231;40.090;18.348;2023-02-15T16:31:13;29.20;;;15.45;;
65581;SDS011;52231;40.090;18.348;2023-02-15T16:34:01;31.63;;;18.77;;
65581;SDS011;52231;40.090;18.348;2023-02-15T16:37:12;35.13;;;16.50;;
65581;SDS011;52231;40.090;18.348;2023-02-15T16:39:57;33.63;;;19.35;;
65581;SDS011;52231;40.090;18.348;2023-02-15T16:46:08;36.53;;;20.92;;
65581;SDS011;52231;40.090;18.348;2023-02-15T16:49:31;33.58;;;19.58;;
65581;SDS011;52231;40.090;18.348;2023-02-15T16:52:31;35.30;;;19.58;;
65581;SDS011;52231;40.090;18.348;2023-02-15T16:55:00;33.90;;;19.83;;
65581;SDS011;52231;40.090;18.348;2023-02-15T16:57:35;34.60;;;19.95;;
65581;SDS011;52231;40.090;18.348;2023-02-15T17:00:22;48.33;;;28.65;;
65581;SDS011;52231;40.090;18.348;2023-02-15T17:06:01;75.63;;;43.83;;
65581;SDS011;52231;40.090;18.348;2023-02-15T17:08:52;44.00;;;25.52;;
65581;SDS011;52231;40.090;18.348;2023-02-15T17:12:35;45.13;;;27.15;;
65581;SDS011;52231;40.090;18.348;2023-02-15T17:22:49;49.22;;;28.38;;
65581;SDS011;52231;40.090;18.348;2023-02-15T17:25:36;40.20;;;22.42;;
65581;SDS011;52231;40.090;18.348;2023-02-15T17:28:26;34.03;;;19.20;;
65581;SDS011;52231;40.090;18.348;2023-02-15T17:31:33;36.17;;;20.13;;
65581;SDS011;52231;40.090;18.348;2023-02-15T17:34:48;39.80;;;22.25;;
65581;SDS011;52231;40.090;18.348;2023-02-15T17:38:05;42.47;;;22.50;;
65581;SDS011;52231;40.090;18.348;2023-02-15T17:41:44;41.88;;;21.98;;
65581;SDS011;52231;40.090;18.348;2023-02-15T17:44:53;46.33;;;26.52;;
65581;SDS011;52231;40.090;18.348;2023-02-15T17:47:22;38.95;;;20.42;;
65581;SDS011;52231;40.090;18.348;2023-02-15T17:49:55;43.17;;;23.33;;
65581;SDS011;52231;40.090;18.348;2023-02-15T17:52:32;47.50;;;26.83;;
65581;SDS011;52231;40.090;18.348;2023-02-15T17:55:01;45.45;;;24.70;;
65581;SDS011;52231;40.090;18.348;2023-02-15T17:58:15;40.92;;;22.27;;
65581;SDS011;52231;40.090;18.348;2023-02-15T18:01:19;38.28;;;21.70;;
65581;SDS011;52231;40.090;18.348;2023-02-15T18:04:30;40.22;;;21.67;;
65581;SDS011;52231;40.090;18.348;2023-02-15T18:07:36;41.58;;;24.30;;
65581;SDS011;52231;40.090;18.348;2023-02-15T18:11:15;40.80;;;23.33;;
65581;SDS011;52231;40.090;18.348;2023-02-15T18:14:16;39.65;;;22.17;;
65581;SDS011;52231;40.090;18.348;2023-02-15T18:16:48;38.60;;;21.98;;
65581;SDS011;52231;40.090;18.348;2023-02-15T18:19:24;43.08;;;23.73;;
65581;SDS011;52231;40.090;18.348;2023-02-15T18:22:04;43.92;;;23.58;;
65581;SDS011;52231;40.090;18.348;2023-02-15T18:24:46;49.58;;;24.52;;